sensor_id;sensor_type;location;lat;lon;timestamp;temperature;humidity
26947;DHT22;14501;52.282;10.560;2022-11-02T00:01:25;10.50;99.90
26947;DHT22;14501;52.282;10.560;2022-11-02T00:03:52;10.50;99.90
26947;DHT22;14501;52.282;10.560;2022-11-02T00:06:18;10.60;99.90
26947;DHT22;14501;52.282;10.560;2022-11-02T00:08:44;10.50;99.90
26947;DHT22;14501;52.282;10.560;2022-11-02T00:11:10;10.50;99.90
26947;DHT22;14501;52.282;10.560;2022-11-02T00:13:36;10.50;99.90
26947;DHT22;14501;52.282;10.560;2022-11-02T00:16:04;10.60;99.90
26947;DHT22;14501;52.282;10.560;2022-11-02T00:18:31;10.60;99.90
26947;DHT22;14501;52.282;10.560;2022-11-02T00:20:57;10.50;99.90
26947;DHT22;14501;52.282;10.560;2022-11-02T00:23:23;10.60;99.90
26947;DHT22;14501;52.282;10.560;2022-11-02T00:25:49;10.60;99.90
26947;DHT22;14501;52.282;10.560;2022-11-02T00:28:16;10.50;99.90
26947;DHT22;14501;52.282;10.560;2022-11-02T00:30:43;10.50;99.90
26947;DHT22;14501;52.282;10.560;2022-11-02T00:33:09;10.50;99.90
26947;DHT22;14501;52.282;10.560;2022-11-02T00:35:35;10.50;99.90
26947;DHT22;14501;52.282;10.560;2022-11-02T00:38:01;10.40;99.90
26947;DHT22;14501;52.282;10.560;2022-11-02T00:40:27;10.40;99.90
26947;DHT22;14501;52.282;10.560;2022-11-02T00:42:52;10.40;99.90
26947;DHT22;14501;52.282;10.560;2022-11-02T00:45:18;10.40;99.90
26947;DHT22;14501;52.282;10.560;2022-11-02T00:47:44;10.40;99.90
26947;DHT22;14501;52.282;10.560;2022-11-02T00:50:10;10.40;99.90
26947;DHT22;14501;52.282;10.560;2022-11-02T00:52:38;10.50;99.90
26947;DHT22;14501;52.282;10.560;2022-11-02T00:55:05;10.50;99.90
26947;DHT22;14501;52.282;10.560;2022-11-02T00:57:33;10.50;99.90
26947;DHT22;14501;52.282;10.560;2022-11-02T00:59:59;10.60;99.90
26947;DHT22;14501;52.282;10.560;2022-11-02T01:02:25;10.60;99.90
26947;DHT22;14501;52.282;10.560;2022-11-02T01:04:51;10.70;99.90
26947;DHT22;14501;52.282;10.560;2022-11-02T01:07:17;10.70;99.90
26947;DHT22;14501;52.282;10.560;2022-11-02T01:09:42;10.70;99.90
26947;DHT22;14501;52.282;10.560;2022-11-02T01:12:08;10.70;99.90
26947;DHT22;14501;52.282;10.560;2022-11-02T01:14:34;10.80;99.90
26947;DHT22;14501;52.282;10.560;2022-11-02T01:16:59;10.80;99.90
26947;DHT22;14501;52.282;10.560;2022-11-02T01:19:25;10.80;99.90
26947;DHT22;14501;52.282;10.560;2022-11-02T01:21:51;10.90;99.90
26947;DHT22;14501;52.282;10.560;2022-11-02T01:24:16;10.90;99.90
26947;DHT22;14501;52.282;10.560;2022-11-02T01:26:42;10.90;99.90
26947;DHT22;14501;52.282;10.560;2022-11-02T01:29:08;10.90;99.90
26947;DHT22;14501;52.282;10.560;2022-11-02T01:31:33;10.90;99.90
26947;DHT22;14501;52.282;10.560;2022-11-02T01:33:59;10.90;99.90
26947;DHT22;14501;52.282;10.560;2022-11-02T01:36:25;10.80;99.90
26947;DHT22;14501;52.282;10.560;2022-11-02T01:38:51;10.70;99.90
26947;DHT22;14501;52.282;10.560;2022-11-02T01:41:17;10.90;99.90
26947;DHT22;14501;52.282;10.560;2022-11-02T01:43:45;10.80;99.90
26947;DHT22;14501;52.282;10.560;2022-11-02T01:51:06;10.80;99.90
26947;DHT22;14501;52.282;10.560;2022-11-02T01:53:35;10.80;99.90
26947;DHT22;14501;52.282;10.560;2022-11-02T01:56:03;10.70;99.90
26947;DHT22;14501;52.282;10.560;2022-11-02T01:58:29;10.70;99.90
26947;DHT22;14501;52.282;10.560;2022-11-02T02:00:56;10.80;99.90
26947;DHT22;14501;52.282;10.560;2022-11-02T02:03:21;10.70;99.90
26947;DHT22;14501;52.282;10.560;2022-11-02T02:05:54;10.80;99.90
26947;DHT22;14501;52.282;10.560;2022-11-02T02:08:23;10.80;99.90
26947;DHT22;14501;52.282;10.560;2022-11-02T02:10:49;10.90;99.90
26947;DHT22;14501;52.282;10.560;2022-11-02T02:13:16;10.90;99.90
26947;DHT22;14501;52.282;10.560;2022-11-02T02:18:56;10.90;99.90
26947;DHT22;14501;52.282;10.560;2022-11-02T02:21:56;10.80;99.90
26947;DHT22;14501;52.282;10.560;2022-11-02T02:24:45;10.90;99.90
26947;DHT22;14501;52.282;10.560;2022-11-02T02:30:06;10.90;99.90
26947;DHT22;14501;52.282;10.560;2022-11-02T02:42:56;10.80;99.90
26947;DHT22;14501;52.282;10.560;2022-11-02T02:48:23;10.80;99.90
26947;DHT22;14501;52.282;10.560;2022-11-02T02:50:53;10.80;99.90
26947;DHT22;14501;52.282;10.560;2022-11-02T02:53:23;10.90;99.90
26947;DHT22;14501;52.282;10.560;2022-11-02T02:55:52;10.90;99.90
26947;DHT22;14501;52.282;10.560;2022-11-02T02:58:21;10.90;99.90
26947;DHT22;14501;52.282;10.560;2022-11-02T03:00:48;11.00;99.90
26947;DHT22;14501;52.282;10.560;2022-11-02T03:03:20;11.10;99.90
26947;DHT22;14501;52.282;10.560;2022-11-02T03:08:31;11.30;99.90
26947;DHT22;14501;52.282;10.560;2022-11-02T03:11:09;11.30;99.90
26947;DHT22;14501;52.282;10.560;2022-11-02T03:18:52;11.30;99.90
26947;DHT22;14501;52.282;10.560;2022-11-02T03:21:41;11.30;99.90
26947;DHT22;14501;52.282;10.560;2022-11-02T03:27:05;11.20;99.90
26947;DHT22;14501;52.282;10.560;2022-11-02T03:32:26;11.20;99.90
26947;DHT22;14501;52.282;10.560;2022-11-02T03:34:57;11.30;99.90
26947;DHT22;14501;52.282;10.560;2022-11-02T03:37:48;11.40;99.90
26947;DHT22;14501;52.282;10.560;2022-11-02T03:40:26;11.50;99.90
26947;DHT22;14501;52.282;10.560;2022-11-02T03:42:55;11.60;99.90
26947;DHT22;14501;52.282;10.560;2022-11-02T03:45:25;11.70;99.90
26947;DHT22;14501;52.282;10.560;2022-11-02T03:47:55;11.80;99.90
26947;DHT22;14501;52.282;10.560;2022-11-02T03:50:23;11.90;99.90
26947;DHT22;14501;52.282;10.560;2022-11-02T03:53:13;12.00;99.90
26947;DHT22;14501;52.282;10.560;2022-11-02T03:55:44;12.00;99.90
26947;DHT22;14501;52.282;10.560;2022-11-02T03:58:11;12.10;99.90
26947;DHT22;14501;52.282;10.560;2022-11-02T04:00:41;12.10;99.90
26947;DHT22;14501;52.282;10.560;2022-11-02T04:03:09;12.10;99.90
26947;DHT22;14501;52.282;10.560;2022-11-02T04:05:36;12.20;99.90
26947;DHT22;14501;52.282;10.560;2022-11-02T04:08:02;12.20;99.90
26947;DHT22;14501;52.282;10.560;2022-11-02T04:10:51;12.20;99.90
26947;DHT22;14501;52.282;10.560;2022-11-02T04:13:36;12.20;99.90
26947;DHT22;14501;52.282;10.560;2022-11-02T04:16:21;12.30;99.90
26947;DHT22;14501;52.282;10.560;2022-11-02T04:18:46;12.30;99.90
26947;DHT22;14501;52.282;10.560;2022-11-02T04:21:31;12.30;99.90
26947;DHT22;14501;52.282;10.560;2022-11-02T04:23:57;12.30;99.90
26947;DHT22;14501;52.282;10.560;2022-11-02T04:26:41;12.30;99.90
26947;DHT22;14501;52.282;10.560;2022-11-02T04:29:07;12.30;99.90
26947;DHT22;14501;52.282;10.560;2022-11-02T04:31:33;12.20;99.90
26947;DHT22;14501;52.282;10.560;2022-11-02T04:33:58;12.10;99.90
26947;DHT22;14501;52.282;10.560;2022-11-02T04:36:27;12.00;99.90
26947;DHT22;14501;52.282;10.560;2022-11-02T04:38:53;12.00;99.90
26947;DHT22;14501;52.282;10.560;2022-11-02T04:41:20;11.90;99.90
26947;DHT22;14501;52.282;10.560;2022-11-02T04:44:18;11.90;99.90
26947;DHT22;14501;52.282;10.560;2022-11-02T04:46:44;11.80;99.90
26947;DHT22;14501;52.282;10.560;2022-11-02T04:49:10;11.80;99.90
26947;DHT22;14501;52.282;10.560;2022-11-02T04:51:36;11.80;99.90
26947;DHT22;14501;52.282;10.560;2022-11-02T04:54:04;11.90;99.90
26947;DHT22;14501;52.282;10.560;2022-11-02T04:56:30;12.10;99.90
26947;DHT22;14501;52.282;10.560;2022-11-02T04:58:57;12.00;99.90
26947;DHT22;14501;52.282;10.560;2022-11-02T05:01:24;12.10;99.90
26947;DHT22;14501;52.282;10.560;2022-11-02T05:03:51;12.10;99.90
26947;DHT22;14501;52.282;10.560;2022-11-02T05:06:18;12.10;99.90
26947;DHT22;14501;52.282;10.560;2022-11-02T05:08:44;12.20;99.90
26947;DHT22;14501;52.282;10.560;2022-11-02T05:11:10;12.20;99.90
26947;DHT22;14501;52.282;10.560;2022-11-02T05:13:37;12.20;99.90
26947;DHT22;14501;52.282;10.560;2022-11-02T05:16:03;12.20;99.90
26947;DHT22;14501;52.282;10.560;2022-11-02T05:18:29;12.20;99.90
26947;DHT22;14501;52.282;10.560;2022-11-02T05:20:57;12.10;99.90
26947;DHT22;14501;52.282;10.560;2022-11-02T05:23:23;12.10;99.90
26947;DHT22;14501;52.282;10.560;2022-11-02T05:25:55;12.00;99.90
26947;DHT22;14501;52.282;10.560;2022-11-02T05:28:21;11.90;99.90
26947;DHT22;14501;52.282;10.560;2022-11-02T05:30:47;11.80;99.90
26947;DHT22;14501;52.282;10.560;2022-11-02T05:33:12;11.70;99.90
26947;DHT22;14501;52.282;10.560;2022-11-02T05:35:38;11.60;99.90
26947;DHT22;14501;52.282;10.560;2022-11-02T05:38:03;11.50;99.90
26947;DHT22;14501;52.282;10.560;2022-11-02T05:40:29;11.40;99.90
26947;DHT22;14501;52.282;10.560;2022-11-02T05:42:59;11.40;99.90
26947;DHT22;14501;52.282;10.560;2022-11-02T05:45:25;11.30;99.90
26947;DHT22;14501;52.282;10.560;2022-11-02T05:47:50;11.20;99.90
26947;DHT22;14501;52.282;10.560;2022-11-02T05:50:16;11.10;99.90
26947;DHT22;14501;52.282;10.560;2022-11-02T05:52:42;11.00;99.90
26947;DHT22;14501;52.282;10.560;2022-11-02T05:55:07;10.90;99.90
26947;DHT22;14501;52.282;10.560;2022-11-02T05:57:33;10.80;99.90
26947;DHT22;14501;52.282;10.560;2022-11-02T05:59:59;10.80;99.90
26947;DHT22;14501;52.282;10.560;2022-11-02T06:02:25;10.80;99.90
26947;DHT22;14501;52.282;10.560;2022-11-02T06:04:51;10.70;99.90
26947;DHT22;14501;52.282;10.560;2022-11-02T06:07:16;10.60;99.90
26947;DHT22;14501;52.282;10.560;2022-11-02T06:09:42;10.60;99.90
26947;DHT22;14501;52.282;10.560;2022-11-02T06:12:08;10.60;99.90
26947;DHT22;14501;52.282;10.560;2022-11-02T06:14:33;10.60;99.90
26947;DHT22;14501;52.282;10.560;2022-11-02T06:16:59;10.50;99.90
26947;DHT22;14501;52.282;10.560;2022-11-02T06:19:24;10.50;99.90
26947;DHT22;14501;52.282;10.560;2022-11-02T06:21:50;10.50;99.90
26947;DHT22;14501;52.282;10.560;2022-11-02T06:24:16;10.50;99.90
26947;DHT22;14501;52.282;10.560;2022-11-02T06:26:41;10.60;99.90
26947;DHT22;14501;52.282;10.560;2022-11-02T06:29:07;10.60;99.90
26947;DHT22;14501;52.282;10.560;2022-11-02T06:31:33;10.60;99.90
26947;DHT22;14501;52.282;10.560;2022-11-02T06:33:58;10.60;99.90
26947;DHT22;14501;52.282;10.560;2022-11-02T06:36:24;10.60;99.90
26947;DHT22;14501;52.282;10.560;2022-11-02T06:38:50;10.60;99.90
26947;DHT22;14501;52.282;10.560;2022-11-02T06:41:15;10.60;99.90
26947;DHT22;14501;52.282;10.560;2022-11-02T06:43:41;10.60;99.90
26947;DHT22;14501;52.282;10.560;2022-11-02T06:46:06;10.60;99.90
26947;DHT22;14501;52.282;10.560;2022-11-02T06:48:32;10.60;99.90
26947;DHT22;14501;52.282;10.560;2022-11-02T06:50:58;10.70;99.90
26947;DHT22;14501;52.282;10.560;2022-11-02T06:53:24;10.60;99.90
26947;DHT22;14501;52.282;10.560;2022-11-02T06:55:59;10.60;99.90
26947;DHT22;14501;52.282;10.560;2022-11-02T06:58:25;10.70;99.90
26947;DHT22;14501;52.282;10.560;2022-11-02T07:01:06;10.70;99.90
26947;DHT22;14501;52.282;10.560;2022-11-02T07:03:32;10.70;99.90
26947;DHT22;14501;52.282;10.560;2022-11-02T07:05:57;10.80;99.90
26947;DHT22;14501;52.282;10.560;2022-11-02T07:08:24;10.80;99.90
26947;DHT22;14501;52.282;10.560;2022-11-02T07:10:50;10.90;99.90
26947;DHT22;14501;52.282;10.560;2022-11-02T07:13:16;11.10;99.90
26947;DHT22;14501;52.282;10.560;2022-11-02T07:15:41;11.20;99.90
26947;DHT22;14501;52.282;10.560;2022-11-02T07:18:07;11.40;99.90
26947;DHT22;14501;52.282;10.560;2022-11-02T07:20:33;11.50;99.90
26947;DHT22;14501;52.282;10.560;2022-11-02T07:23:00;11.60;99.90
26947;DHT22;14501;52.282;10.560;2022-11-02T07:25:27;11.70;99.90
26947;DHT22;14501;52.282;10.560;2022-11-02T07:27:55;11.90;99.90
26947;DHT22;14501;52.282;10.560;2022-11-02T07:30:21;12.00;99.90
26947;DHT22;14501;52.282;10.560;2022-11-02T07:32:47;12.10;99.90
26947;DHT22;14501;52.282;10.560;2022-11-02T07:35:14;12.10;99.90
26947;DHT22;14501;52.282;10.560;2022-11-02T07:37:40;12.20;99.90
26947;DHT22;14501;52.282;10.560;2022-11-02T07:40:08;12.30;99.90
26947;DHT22;14501;52.282;10.560;2022-11-02T07:42:33;12.40;99.90
26947;DHT22;14501;52.282;10.560;2022-11-02T07:44:59;12.40;99.90
26947;DHT22;14501;52.282;10.560;2022-11-02T07:47:25;12.40;99.90
26947;DHT22;14501;52.282;10.560;2022-11-02T07:49:51;12.50;99.90
26947;DHT22;14501;52.282;10.560;2022-11-02T07:52:17;12.40;99.90
26947;DHT22;14501;52.282;10.560;2022-11-02T07:54:42;12.40;99.90
26947;DHT22;14501;52.282;10.560;2022-11-02T07:57:08;12.30;99.90
26947;DHT22;14501;52.282;10.560;2022-11-02T07:59:34;12.30;99.90
26947;DHT22;14501;52.282;10.560;2022-11-02T08:02:01;12.40;99.90
26947;DHT22;14501;52.282;10.560;2022-11-02T08:04:27;12.40;99.90
26947;DHT22;14501;52.282;10.560;2022-11-02T08:06:52;12.70;99.90
26947;DHT22;14501;52.282;10.560;2022-11-02T08:09:18;12.70;99.90
26947;DHT22;14501;52.282;10.560;2022-11-02T08:11:43;12.70;99.90
26947;DHT22;14501;52.282;10.560;2022-11-02T08:14:09;12.80;99.90
26947;DHT22;14501;52.282;10.560;2022-11-02T08:16:35;13.20;99.90
26947;DHT22;14501;52.282;10.560;2022-11-02T08:19:01;13.20;99.90
26947;DHT22;14501;52.282;10.560;2022-11-02T08:21:27;13.50;99.90
26947;DHT22;14501;52.282;10.560;2022-11-02T08:23:53;13.50;99.90
26947;DHT22;14501;52.282;10.560;2022-11-02T08:26:20;13.30;99.90
26947;DHT22;14501;52.282;10.560;2022-11-02T08:28:45;13.60;99.90
26947;DHT22;14501;52.282;10.560;2022-11-02T08:31:16;13.90;99.90
26947;DHT22;14501;52.282;10.560;2022-11-02T08:33:43;13.90;99.90
26947;DHT22;14501;52.282;10.560;2022-11-02T08:36:09;14.00;99.90
26947;DHT22;14501;52.282;10.560;2022-11-02T08:38:35;14.70;99.90
26947;DHT22;14501;52.282;10.560;2022-11-02T08:41:01;15.80;99.90
26947;DHT22;14501;52.282;10.560;2022-11-02T08:43:27;17.40;99.90
26947;DHT22;14501;52.282;10.560;2022-11-02T08:45:57;18.90;99.90
26947;DHT22;14501;52.282;10.560;2022-11-02T08:48:24;20.40;99.90
26947;DHT22;14501;52.282;10.560;2022-11-02T08:50:50;20.60;99.90
26947;DHT22;14501;52.282;10.560;2022-11-02T08:53:16;20.20;99.90
26947;DHT22;14501;52.282;10.560;2022-11-02T08:55:41;19.60;99.90
26947;DHT22;14501;52.282;10.560;2022-11-02T08:58:07;19.30;99.90
26947;DHT22;14501;52.282;10.560;2022-11-02T09:00:34;19.20;99.90
26947;DHT22;14501;52.282;10.560;2022-11-02T09:03:11;18.80;99.90
26947;DHT22;14501;52.282;10.560;2022-11-02T09:05:39;17.90;99.90
26947;DHT22;14501;52.282;10.560;2022-11-02T09:08:08;17.10;99.90
26947;DHT22;14501;52.282;10.560;2022-11-02T09:10:35;16.70;99.90
26947;DHT22;14501;52.282;10.560;2022-11-02T09:13:03;16.20;99.90
26947;DHT22;14501;52.282;10.560;2022-11-02T09:15:31;15.80;99.90
26947;DHT22;14501;52.282;10.560;2022-11-02T09:17:57;15.50;99.90
26947;DHT22;14501;52.282;10.560;2022-11-02T09:20:22;15.40;99.90
26947;DHT22;14501;52.282;10.560;2022-11-02T09:22:48;15.10;99.90
26947;DHT22;14501;52.282;10.560;2022-11-02T09:25:15;14.90;99.90
26947;DHT22;14501;52.282;10.560;2022-11-02T09:27:41;14.60;99.90
26947;DHT22;14501;52.282;10.560;2022-11-02T09:30:08;14.60;99.90
26947;DHT22;14501;52.282;10.560;2022-11-02T09:32:34;14.60;99.90
26947;DHT22;14501;52.282;10.560;2022-11-02T09:35:02;14.50;99.90
26947;DHT22;14501;52.282;10.560;2022-11-02T09:37:28;14.50;99.90
26947;DHT22;14501;52.282;10.560;2022-11-02T09:39:56;14.50;99.90
26947;DHT22;14501;52.282;10.560;2022-11-02T09:42:39;14.40;99.90
26947;DHT22;14501;52.282;10.560;2022-11-02T09:45:12;14.60;99.90
26947;DHT22;14501;52.282;10.560;2022-11-02T09:47:45;15.10;99.90
26947;DHT22;14501;52.282;10.560;2022-11-02T09:50:32;15.50;99.90
26947;DHT22;14501;52.282;10.560;2022-11-02T09:53:02;15.90;99.90
26947;DHT22;14501;52.282;10.560;2022-11-02T09:55:34;16.10;99.90
26947;DHT22;14501;52.282;10.560;2022-11-02T09:58:05;16.80;99.90
26947;DHT22;14501;52.282;10.560;2022-11-02T10:00:35;17.10;99.90
26947;DHT22;14501;52.282;10.560;2022-11-02T10:05:57;16.60;99.90
26947;DHT22;14501;52.282;10.560;2022-11-02T10:14:04;15.70;99.90
26947;DHT22;14501;52.282;10.560;2022-11-02T10:16:43;16.20;99.90
26947;DHT22;14501;52.282;10.560;2022-11-02T10:19:14;16.20;99.90
26947;DHT22;14501;52.282;10.560;2022-11-02T10:21:45;16.30;99.90
26947;DHT22;14501;52.282;10.560;2022-11-02T10:24:30;16.20;99.90
26947;DHT22;14501;52.282;10.560;2022-11-02T10:27:00;16.00;99.90
26947;DHT22;14501;52.282;10.560;2022-11-02T10:29:41;15.90;99.90
26947;DHT22;14501;52.282;10.560;2022-11-02T10:32:11;15.90;99.90
26947;DHT22;14501;52.282;10.560;2022-11-02T10:34:37;15.80;99.90
26947;DHT22;14501;52.282;10.560;2022-11-02T10:37:30;16.00;99.90
26947;DHT22;14501;52.282;10.560;2022-11-02T10:48:04;15.70;99.90
26947;DHT22;14501;52.282;10.560;2022-11-02T10:53:11;15.40;99.90
26947;DHT22;14501;52.282;10.560;2022-11-02T10:58:59;15.70;99.90
26947;DHT22;14501;52.282;10.560;2022-11-02T11:01:27;15.80;99.90
26947;DHT22;14501;52.282;10.560;2022-11-02T11:04:02;15.70;99.90
26947;DHT22;14501;52.282;10.560;2022-11-02T11:06:30;15.50;99.90
26947;DHT22;14501;52.282;10.560;2022-11-02T11:09:19;15.50;99.90
26947;DHT22;14501;52.282;10.560;2022-11-02T11:11:59;15.50;99.90
26947;DHT22;14501;52.282;10.560;2022-11-02T11:14:29;15.50;99.90
26947;DHT22;14501;52.282;10.560;2022-11-02T11:16:59;15.60;99.90
26947;DHT22;14501;52.282;10.560;2022-11-02T11:19:39;15.50;99.90
26947;DHT22;14501;52.282;10.560;2022-11-02T11:22:32;15.70;99.90
26947;DHT22;14501;52.282;10.560;2022-11-02T11:32:52;15.90;99.90
26947;DHT22;14501;52.282;10.560;2022-11-02T11:35:19;16.00;99.90
26947;DHT22;14501;52.282;10.560;2022-11-02T11:37:51;15.80;99.90
26947;DHT22;14501;52.282;10.560;2022-11-02T11:40:20;15.70;99.90
26947;DHT22;14501;52.282;10.560;2022-11-02T11:42:51;15.70;99.90
26947;DHT22;14501;52.282;10.560;2022-11-02T11:45:27;15.90;99.90
26947;DHT22;14501;52.282;10.560;2022-11-02T11:50:46;15.90;99.90
26947;DHT22;14501;52.282;10.560;2022-11-02T11:55:48;15.50;99.90
26947;DHT22;14501;52.282;10.560;2022-11-02T12:03:52;14.80;99.90
26947;DHT22;14501;52.282;10.560;2022-11-02T12:06:45;14.70;99.90
26947;DHT22;14501;52.282;10.560;2022-11-02T12:39:00;18.20;99.90
26947;DHT22;14501;52.282;10.560;2022-11-02T12:41:41;18.40;99.90
26947;DHT22;14501;52.282;10.560;2022-11-02T12:55:24;16.40;99.90
26947;DHT22;14501;52.282;10.560;2022-11-02T12:57:56;15.80;99.90
26947;DHT22;14501;52.282;10.560;2022-11-02T13:00:23;15.50;99.90
26947;DHT22;14501;52.282;10.560;2022-11-02T13:03:06;15.40;99.90
26947;DHT22;14501;52.282;10.560;2022-11-02T13:05:42;15.20;99.90
26947;DHT22;14501;52.282;10.560;2022-11-02T13:08:18;15.00;99.90
26947;DHT22;14501;52.282;10.560;2022-11-02T13:10:49;15.10;99.90
26947;DHT22;14501;52.282;10.560;2022-11-02T13:13:47;15.30;99.90
26947;DHT22;14501;52.282;10.560;2022-11-02T13:16:16;15.00;99.90
26947;DHT22;14501;52.282;10.560;2022-11-02T13:18:50;15.10;99.90
26947;DHT22;14501;52.282;10.560;2022-11-02T13:21:26;15.10;99.90
26947;DHT22;14501;52.282;10.560;2022-11-02T13:23:57;15.20;99.90
26947;DHT22;14501;52.282;10.560;2022-11-02T13:26:33;15.30;99.90
26947;DHT22;14501;52.282;10.560;2022-11-02T13:32:00;15.40;99.90
26947;DHT22;14501;52.282;10.560;2022-11-02T13:34:34;15.40;99.90
26947;DHT22;14501;52.282;10.560;2022-11-02T13:37:10;15.20;99.90
26947;DHT22;14501;52.282;10.560;2022-11-02T13:39:50;15.20;99.90
26947;DHT22;14501;52.282;10.560;2022-11-02T13:50:30;15.00;99.90
26947;DHT22;14501;52.282;10.560;2022-11-02T13:53:00;15.10;99.90
26947;DHT22;14501;52.282;10.560;2022-11-02T13:55:39;15.10;99.90
26947;DHT22;14501;52.282;10.560;2022-11-02T13:58:06;14.90;99.90
26947;DHT22;14501;52.282;10.560;2022-11-02T14:00:42;14.90;99.90
26947;DHT22;14501;52.282;10.560;2022-11-02T14:03:25;14.90;99.90
26947;DHT22;14501;52.282;10.560;2022-11-02T14:05:55;15.00;99.90
26947;DHT22;14501;52.282;10.560;2022-11-02T14:08:58;15.00;99.90
26947;DHT22;14501;52.282;10.560;2022-11-02T14:11:52;15.20;99.90
26947;DHT22;14501;52.282;10.560;2022-11-02T14:14:34;15.10;99.90
26947;DHT22;14501;52.282;10.560;2022-11-02T14:17:12;14.80;99.90
26947;DHT22;14501;52.282;10.560;2022-11-02T14:19:49;14.70;99.90
26947;DHT22;14501;52.282;10.560;2022-11-02T14:22:17;14.60;99.90
26947;DHT22;14501;52.282;10.560;2022-11-02T14:45:31;13.50;99.90
26947;DHT22;14501;52.282;10.560;2022-11-02T14:48:03;13.40;99.90
26947;DHT22;14501;52.282;10.560;2022-11-02T14:50:30;13.30;99.90
26947;DHT22;14501;52.282;10.560;2022-11-02T14:53:03;13.20;99.90
26947;DHT22;14501;52.282;10.560;2022-11-02T14:55:34;13.20;99.90
26947;DHT22;14501;52.282;10.560;2022-11-02T14:58:12;13.00;99.90
26947;DHT22;14501;52.282;10.560;2022-11-02T15:03:35;12.90;99.90
26947;DHT22;14501;52.282;10.560;2022-11-02T15:08:47;12.70;99.90
26947;DHT22;14501;52.282;10.560;2022-11-02T15:16:51;12.30;99.90
26947;DHT22;14501;52.282;10.560;2022-11-02T15:19:43;12.30;99.90
26947;DHT22;14501;52.282;10.560;2022-11-02T15:22:34;12.20;99.90
26947;DHT22;14501;52.282;10.560;2022-11-02T15:25:12;12.10;99.90
26947;DHT22;14501;52.282;10.560;2022-11-02T15:27:42;12.00;99.90
26947;DHT22;14501;52.282;10.560;2022-11-02T15:30:18;11.90;99.90
26947;DHT22;14501;52.282;10.560;2022-11-02T15:32:52;11.80;99.90
26947;DHT22;14501;52.282;10.560;2022-11-02T15:35:22;11.80;99.90
26947;DHT22;14501;52.282;10.560;2022-11-02T15:37:57;11.70;99.90
26947;DHT22;14501;52.282;10.560;2022-11-02T15:40:35;11.60;99.90
26947;DHT22;14501;52.282;10.560;2022-11-02T15:45:58;11.50;99.90
26947;DHT22;14501;52.282;10.560;2022-11-02T15:54:26;11.10;99.90
26947;DHT22;14501;52.282;10.560;2022-11-02T16:02:21;10.90;99.90
26947;DHT22;14501;52.282;10.560;2022-11-02T16:04:54;10.80;99.90
26947;DHT22;14501;52.282;10.560;2022-11-02T16:07:20;10.60;99.90
26947;DHT22;14501;52.282;10.560;2022-11-02T16:09:47;10.60;99.90
26947;DHT22;14501;52.282;10.560;2022-11-02T16:12:17;10.50;99.90
26947;DHT22;14501;52.282;10.560;2022-11-02T16:14:56;10.50;99.90
26947;DHT22;14501;52.282;10.560;2022-11-02T16:17:27;10.40;99.90
26947;DHT22;14501;52.282;10.560;2022-11-02T16:20:17;10.30;99.90
26947;DHT22;14501;52.282;10.560;2022-11-02T16:25:38;10.20;99.90
26947;DHT22;14501;52.282;10.560;2022-11-02T16:28:18;10.10;99.90
26947;DHT22;14501;52.282;10.560;2022-11-02T16:33:30;10.00;99.90
26947;DHT22;14501;52.282;10.560;2022-11-02T16:35:56;9.90;99.90
26947;DHT22;14501;52.282;10.560;2022-11-02T16:38:22;9.90;99.90
26947;DHT22;14501;52.282;10.560;2022-11-02T16:40:48;9.80;99.90
26947;DHT22;14501;52.282;10.560;2022-11-02T16:43:14;9.80;99.90
26947;DHT22;14501;52.282;10.560;2022-11-02T16:45:41;9.80;99.90
26947;DHT22;14501;52.282;10.560;2022-11-02T16:48:17;9.70;99.90
26947;DHT22;14501;52.282;10.560;2022-11-02T16:53:36;9.60;99.90
26947;DHT22;14501;52.282;10.560;2022-11-02T16:56:32;9.50;99.90
26947;DHT22;14501;52.282;10.560;2022-11-02T16:59:05;9.40;99.90
26947;DHT22;14501;52.282;10.560;2022-11-02T17:01:34;9.40;99.90
26947;DHT22;14501;52.282;10.560;2022-11-02T17:04:19;9.30;99.90
26947;DHT22;14501;52.282;10.560;2022-11-02T17:06:47;9.30;99.90
26947;DHT22;14501;52.282;10.560;2022-11-02T17:09:33;9.20;99.90
26947;DHT22;14501;52.282;10.560;2022-11-02T17:12:04;9.20;99.90
26947;DHT22;14501;52.282;10.560;2022-11-02T17:14:31;9.00;99.90
26947;DHT22;14501;52.282;10.560;2022-11-02T17:17:00;9.00;99.90
26947;DHT22;14501;52.282;10.560;2022-11-02T17:22:25;9.00;99.90
26947;DHT22;14501;52.282;10.560;2022-11-02T17:25:11;9.60;99.90
26947;DHT22;14501;52.282;10.560;2022-11-02T17:27:37;8.90;99.90
26947;DHT22;14501;52.282;10.560;2022-11-02T17:30:03;8.90;99.90
26947;DHT22;14501;52.282;10.560;2022-11-02T17:32:29;8.80;99.90
26947;DHT22;14501;52.282;10.560;2022-11-02T17:34:56;8.70;99.90
26947;DHT22;14501;52.282;10.560;2022-11-02T17:37:30;8.60;99.90
26947;DHT22;14501;52.282;10.560;2022-11-02T17:39:59;8.50;99.90
26947;DHT22;14501;52.282;10.560;2022-11-02T17:42:25;8.20;99.90
26947;DHT22;14501;52.282;10.560;2022-11-02T17:47:54;8.30;99.90
26947;DHT22;14501;52.282;10.560;2022-11-02T17:50:20;8.20;99.90
26947;DHT22;14501;52.282;10.560;2022-11-02T17:52:46;7.90;99.90
26947;DHT22;14501;52.282;10.560;2022-11-02T17:55:16;9.40;99.90
26947;DHT22;14501;52.282;10.560;2022-11-02T17:57:42;7.80;99.90
26947;DHT22;14501;52.282;10.560;2022-11-02T18:00:08;9.80;99.90
26947;DHT22;14501;52.282;10.560;2022-11-02T18:02:34;7.90;99.90
26947;DHT22;14501;52.282;10.560;2022-11-02T18:04:59;7.90;99.90
26947;DHT22;14501;52.282;10.560;2022-11-02T18:07:25;7.80;99.90
26947;DHT22;14501;52.282;10.560;2022-11-02T18:09:50;7.80;99.90
26947;DHT22;14501;52.282;10.560;2022-11-02T18:12:16;6.60;99.90
26947;DHT22;14501;52.282;10.560;2022-11-02T18:14:42;7.90;99.90
26947;DHT22;14501;52.282;10.560;2022-11-02T18:17:08;8.60;99.90
26947;DHT22;14501;52.282;10.560;2022-11-02T18:19:33;7.90;99.90
26947;DHT22;14501;52.282;10.560;2022-11-02T18:22:00;8.40;99.90
26947;DHT22;14501;52.282;10.560;2022-11-02T18:24:26;7.80;99.90
26947;DHT22;14501;52.282;10.560;2022-11-02T18:26:51;8.30;99.90
26947;DHT22;14501;52.282;10.560;2022-11-02T18:29:19;7.70;99.90
26947;DHT22;14501;52.282;10.560;2022-11-02T18:31:44;7.60;99.90
26947;DHT22;14501;52.282;10.560;2022-11-02T18:34:10;7.30;99.90
26947;DHT22;14501;52.282;10.560;2022-11-02T18:36:38;7.40;99.90
26947;DHT22;14501;52.282;10.560;2022-11-02T18:39:04;8.90;99.90
26947;DHT22;14501;52.282;10.560;2022-11-02T18:41:30;7.30;99.90
26947;DHT22;14501;52.282;10.560;2022-11-02T18:44:05;7.10;99.90
26947;DHT22;14501;52.282;10.560;2022-11-02T18:46:34;7.10;99.90